createdAt,value
2018-04-20T00:00:59.757Z,0.00
2018-04-20T00:01:59.669Z,0.00
2018-04-20T00:02:59.674Z,0.00
2018-04-20T00:03:59.485Z,0.00
2018-04-20T00:04:59.429Z,0.00
2018-04-20T00:05:59.303Z,0.00
2018-04-20T00:06:59.215Z,0.00
2018-04-20T00:07:59.121Z,0.00
2018-04-20T00:08:59.035Z,0.00
2018-04-20T00:09:59.070Z,0.00
2018-04-20T00:10:58.856Z,0.00
2018-04-20T00:11:58.764Z,0.00
2018-04-20T00:12:58.673Z,0.00
2018-04-20T00:13:58.583Z,0.00
2018-04-20T00:14:58.524Z,0.00
2018-04-20T00:15:58.411Z,0.00
2018-04-20T00:16:58.432Z,0.00
2018-04-20T00:17:58.223Z,0.00
2018-04-20T00:18:58.132Z,0.00
2018-04-20T00:19:58.075Z,0.00
2018-04-20T00:20:57.952Z,0.00
2018-04-20T00:21:57.864Z,0.00
2018-04-20T00:22:57.770Z,0.00
2018-04-20T00:23:57.781Z,0.00
2018-04-20T00:24:57.620Z,0.00
2018-04-20T00:25:57.510Z,0.00
2018-04-20T00:26:57.412Z,0.00
2018-04-20T00:27:57.321Z,0.00
2018-04-20T00:28:57.235Z,0.00
2018-04-20T00:29:57.174Z,0.00
2018-04-20T00:30:57.148Z,0.00
2018-04-20T00:31:56.964Z,0.00
2018-04-20T00:32:56.870Z,0.00
2018-04-20T00:33:56.783Z,0.00
2018-04-20T00:34:56.721Z,0.00
2018-04-20T00:35:56.602Z,0.00
2018-04-20T00:36:56.512Z,0.00
2018-04-20T00:37:56.429Z,0.00
2018-04-20T00:38:56.333Z,0.00
2018-04-20T00:39:56.270Z,0.00
2018-04-20T00:40:56.157Z,0.00
2018-04-20T00:41:56.062Z,0.00
2018-04-20T00:42:55.973Z,0.00
2018-04-20T00:43:55.885Z,0.00
2018-04-20T00:44:55.918Z,0.00
2018-04-20T00:45:55.709Z,0.00
2018-04-20T00:46:55.614Z,0.00
2018-04-20T00:47:55.540Z,0.00
2018-04-20T00:48:55.433Z,0.00
2018-04-20T00:49:55.374Z,0.00
2018-04-20T00:50:55.256Z,0.00
2018-04-20T00:51:55.165Z,0.00
2018-04-20T00:52:55.079Z,0.00
2018-04-20T00:53:54.993Z,0.00
2018-04-20T00:54:54.936Z,0.00
2018-04-20T00:55:54.814Z,0.00
2018-04-20T00:56:54.724Z,0.00
2018-04-20T00:57:54.633Z,0.00
2018-04-20T00:58:54.547Z,0.00
2018-04-20T00:59:54.484Z,0.00
2018-04-20T01:00:54.364Z,0.00
2018-04-20T01:01:54.276Z,0.00
2018-04-20T01:02:54.184Z,0.00
2018-04-20T01:03:54.096Z,0.00
2018-04-20T01:04:54.036Z,0.00
2018-04-20T01:05:53.919Z,0.00
2018-04-20T01:06:53.825Z,0.00
2018-04-20T01:07:53.736Z,0.00
2018-04-20T01:08:53.648Z,0.00
2018-04-20T01:09:53.593Z,0.00
2018-04-20T01:10:53.471Z,0.00
2018-04-20T01:11:53.377Z,0.00
2018-04-20T01:12:53.290Z,0.00
2018-04-20T01:13:53.199Z,0.00
2018-04-20T01:14:53.144Z,0.00
2018-04-20T01:15:53.018Z,0.00
2018-04-20T01:16:52.929Z,0.00
2018-04-20T01:17:52.870Z,0.00
2018-04-20T01:18:52.749Z,0.00
2018-04-20T01:19:52.688Z,0.00
2018-04-20T01:20:52.567Z,0.00
2018-04-20T01:21:52.476Z,0.00
2018-04-20T01:22:52.387Z,0.00
2018-04-20T01:23:52.303Z,0.00
2018-04-20T01:24:52.239Z,0.00
2018-04-20T01:25:52.157Z,0.00
2018-04-20T01:26:52.032Z,0.00
2018-04-20T01:27:51.936Z,0.00
2018-04-20T01:28:51.848Z,0.00
2018-04-20T01:29:51.795Z,0.00
2018-04-20T01:30:51.665Z,0.00
2018-04-20T01:31:51.573Z,0.00
2018-04-20T01:32:51.488Z,0.00
2018-04-20T01:33:51.395Z,0.00
2018-04-20T01:34:51.304Z,0.00
2018-04-20T01:35:51.246Z,0.00
2018-04-20T01:36:51.120Z,0.00
2018-04-20T01:37:51.034Z,0.00
2018-04-20T01:38:50.945Z,0.00
2018-04-20T01:39:50.912Z,0.00
2018-04-20T01:40:50.760Z,0.00
2018-04-20T01:41:50.669Z,0.00
2018-04-20T01:42:50.576Z,0.00
2018-04-20T01:43:50.487Z,0.00
2018-04-20T01:44:50.396Z,0.00
2018-04-20T01:45:50.337Z,0.00
2018-04-20T01:46:50.214Z,0.00
2018-04-20T01:47:50.123Z,0.00
2018-04-20T01:48:50.031Z,0.00
2018-04-20T01:49:49.946Z,0.00
2018-04-20T01:50:49.901Z,0.00
2018-04-20T01:51:49.757Z,0.00
2018-04-20T01:52:49.670Z,0.00
2018-04-20T01:53:49.578Z,0.00
2018-04-20T01:54:49.488Z,0.00
2018-04-20T01:55:49.426Z,0.00
2018-04-20T01:56:49.306Z,0.00
2018-04-20T01:57:49.216Z,0.00
2018-04-20T01:58:49.121Z,0.00
2018-04-20T01:59:49.076Z,0.00
2018-04-20T02:00:48.984Z,0.00
2018-04-20T02:01:48.957Z,0.00
2018-04-20T02:02:48.758Z,0.00
2018-04-20T02:03:48.666Z,0.00
2018-04-20T02:04:48.579Z,0.00
2018-04-20T02:05:48.514Z,0.00
2018-04-20T02:06:48.396Z,0.00
2018-04-20T02:07:48.306Z,0.00
2018-04-20T02:08:48.215Z,0.00
2018-04-20T02:09:48.126Z,0.00
2018-04-20T02:10:48.061Z,0.00
2018-04-20T02:11:47.941Z,0.00
2018-04-20T02:12:47.861Z,0.00
2018-04-20T02:13:47.760Z,0.00
2018-04-20T02:14:47.665Z,0.00
2018-04-20T02:15:47.700Z,0.00
2018-04-20T02:16:47.485Z,0.00
2018-04-20T02:17:47.397Z,0.00
2018-04-20T02:18:47.302Z,0.00
2018-04-20T02:19:47.212Z,0.00
2018-04-20T02:20:47.148Z,0.00
2018-04-20T02:21:47.033Z,0.00
2018-04-20T02:22:47.050Z,0.00
2018-04-20T02:23:46.848Z,0.00
2018-04-20T02:24:46.759Z,0.00
2018-04-20T02:25:46.694Z,0.00
2018-04-20T02:26:46.575Z,0.00
2018-04-20T02:27:46.487Z,0.00
2018-04-20T02:28:46.392Z,0.00
2018-04-20T02:29:46.404Z,0.00
2018-04-20T02:30:46.244Z,0.00
2018-04-20T02:31:46.122Z,0.00
2018-04-20T02:32:46.028Z,0.00
2018-04-20T02:33:45.943Z,0.00
2018-04-20T02:34:45.849Z,0.00
2018-04-20T02:35:45.790Z,0.00
2018-04-20T02:36:45.763Z,0.00
2018-04-20T02:37:45.585Z,0.00
2018-04-20T02:38:45.484Z,0.00
2018-04-20T02:39:45.394Z,0.00
2018-04-20T02:40:45.330Z,0.00
2018-04-20T02:41:45.212Z,0.00
2018-04-20T02:42:45.121Z,0.00
2018-04-20T02:43:45.126Z,0.00
2018-04-20T02:44:44.946Z,0.00
2018-04-20T02:45:44.879Z,0.00
2018-04-20T02:46:44.757Z,0.00
2018-04-20T02:47:44.667Z,0.00
2018-04-20T02:48:44.576Z,0.00
2018-04-20T02:49:44.485Z,0.00
2018-04-20T02:50:44.521Z,0.00
2018-04-20T02:51:44.304Z,0.00
2018-04-20T02:52:44.218Z,0.00
2018-04-20T02:53:44.125Z,0.00
2018-04-20T02:54:44.029Z,0.00
2018-04-20T02:55:43.969Z,0.00
2018-04-20T02:56:43.848Z,0.00
2018-04-20T02:57:43.856Z,0.00
2018-04-20T02:58:43.667Z,0.00
2018-04-20T02:59:43.577Z,0.00
2018-04-20T03:00:43.517Z,0.00
2018-04-20T03:01:43.392Z,0.00
2018-04-20T03:02:43.304Z,0.00
2018-04-20T03:03:43.210Z,0.00
2018-04-20T03:04:43.213Z,0.00
2018-04-20T03:05:43.056Z,0.00
2018-04-20T03:06:42.937Z,0.00
2018-04-20T03:07:42.848Z,0.00
2018-04-20T03:08:42.755Z,0.00
2018-04-20T03:09:42.664Z,0.00
2018-04-20T03:10:42.602Z,0.00
2018-04-20T03:11:42.585Z,0.00
2018-04-20T03:12:42.392Z,0.00
2018-04-20T03:13:42.311Z,0.00
2018-04-20T03:14:42.207Z,0.00
2018-04-20T03:15:42.148Z,0.00
2018-04-20T03:16:42.032Z,0.00
2018-04-20T03:17:41.934Z,0.00
2018-04-20T03:18:41.942Z,0.00
2018-04-20T03:19:41.752Z,0.00
2018-04-20T03:20:41.693Z,0.00
2018-04-20T03:21:41.571Z,0.00
2018-04-20T03:22:41.485Z,0.00
2018-04-20T03:23:41.391Z,0.00
2018-04-20T03:24:41.299Z,0.00
2018-04-20T03:25:41.238Z,0.00
2018-04-20T03:26:41.114Z,0.00
2018-04-20T03:27:41.025Z,0.00
2018-04-20T03:28:40.934Z,0.00
2018-04-20T03:29:40.843Z,0.00
2018-04-20T03:30:40.782Z,0.00
2018-04-20T03:31:40.662Z,0.00
2018-04-20T03:32:40.571Z,0.00
2018-04-20T03:33:40.479Z,4.00
2018-04-20T03:34:40.387Z,4.00
2018-04-20T03:35:40.326Z,4.00
2018-04-20T03:36:40.209Z,0.00
2018-04-20T03:37:40.113Z,4.00
2018-04-20T03:38:40.025Z,8.00
2018-04-20T03:39:39.935Z,4.00
2018-04-20T03:40:39.872Z,4.00
2018-04-20T03:41:39.753Z,8.00
2018-04-20T03:42:39.661Z,8.00
2018-04-20T03:43:39.570Z,12.00
2018-04-20T03:44:39.481Z,12.00
2018-04-20T03:45:39.421Z,16.00
2018-04-20T03:46:39.301Z,20.00
2018-04-20T03:47:39.210Z,20.00
2018-04-20T03:48:39.116Z,24.00
2018-04-20T03:49:39.040Z,28.00
2018-04-20T03:50:38.938Z,32.00
2018-04-20T03:51:38.875Z,40.00
2018-04-20T03:52:38.759Z,44.00
2018-04-20T03:53:38.664Z,52.00
2018-04-20T03:54:38.577Z,64.00
2018-04-20T03:55:38.513Z,72.00
2018-04-20T03:56:38.394Z,84.00
2018-04-20T03:57:38.305Z,96.00
2018-04-20T03:58:38.214Z,108.00
2018-04-20T03:59:38.125Z,120.00
2018-04-20T04:00:38.035Z,136.00
2018-04-20T04:01:38.746Z,152.00
2018-04-20T04:02:37.851Z,168.00
2018-04-20T04:03:37.762Z,188.00
2018-04-20T04:04:37.671Z,208.00
2018-04-20T04:05:37.585Z,228.00
2018-04-20T04:06:37.618Z,248.00
2018-04-20T04:07:37.401Z,272.00
2018-04-20T04:08:37.311Z,300.00
2018-04-20T04:09:37.220Z,328.00
2018-04-20T04:10:37.128Z,356.00
2018-04-20T04:11:37.067Z,388.00
2018-04-20T04:12:36.948Z,420.00
2018-04-20T04:13:36.860Z,456.00
2018-04-20T04:14:36.773Z,492.00
2018-04-20T04:15:36.682Z,524.00
2018-04-20T04:16:36.615Z,556.00
2018-04-20T04:17:36.498Z,592.00
2018-04-20T04:18:36.412Z,628.00
2018-04-20T04:19:36.317Z,660.00
2018-04-20T04:20:36.231Z,696.00
2018-04-20T04:21:36.169Z,732.00
2018-04-20T04:22:36.049Z,772.00
2018-04-20T04:23:35.962Z,808.00
2018-04-20T04:24:35.924Z,840.00
2018-04-20T04:25:35.797Z,876.00
2018-04-20T04:26:35.718Z,912.00
2018-04-20T04:27:35.597Z,948.00
2018-04-20T04:28:35.510Z,988.00
2018-04-20T04:29:35.420Z,1032.00
2018-04-20T04:30:37.196Z,1076.00
2018-04-20T04:31:35.270Z,1124.00
2018-04-20T04:32:35.150Z,1180.00
2018-04-20T04:33:35.058Z,1232.00
2018-04-20T04:34:34.969Z,1284.00
2018-04-20T04:35:34.879Z,1336.00
2018-04-20T04:36:34.824Z,1380.00
2018-04-20T04:37:34.706Z,1428.00
2018-04-20T04:38:34.610Z,1480.00
2018-04-20T04:39:34.518Z,1536.00
2018-04-20T04:40:34.430Z,1604.00
2018-04-20T04:41:34.373Z,1672.00
2018-04-20T04:42:34.252Z,1744.00
2018-04-20T04:43:34.161Z,1820.00
2018-04-20T04:44:34.069Z,1900.00
2018-04-20T04:45:33.983Z,1980.00
2018-04-20T04:46:33.932Z,2060.00
2018-04-20T04:47:33.800Z,2136.00
2018-04-20T04:48:33.806Z,2216.00
2018-04-20T04:49:33.623Z,2296.00
2018-04-20T04:50:33.533Z,2384.00
2018-04-20T04:51:33.471Z,2464.00
2018-04-20T04:52:33.355Z,2540.00
2018-04-20T04:53:33.263Z,2608.00
2018-04-20T04:54:33.175Z,2684.00
2018-04-20T04:55:33.174Z,2756.00
2018-04-20T04:56:33.022Z,2840.00
2018-04-20T04:57:32.905Z,2924.00
2018-04-20T04:58:32.817Z,3036.00
2018-04-20T04:59:32.725Z,3188.00
2018-04-20T05:00:32.636Z,3588.00
2018-04-20T05:01:32.574Z,4052.00
2018-04-20T05:02:32.552Z,4724.00
2018-04-20T05:03:32.395Z,5304.00
2018-04-20T05:04:32.279Z,5824.00
2018-04-20T05:05:32.187Z,6108.00
2018-04-20T05:06:32.130Z,6168.00
2018-04-20T05:07:32.008Z,6172.00
2018-04-20T05:08:31.922Z,6464.00
2018-04-20T05:09:31.940Z,6200.00
2018-04-20T05:10:31.744Z,5908.00
2018-04-20T05:11:31.655Z,5436.00
2018-04-20T05:12:31.600Z,6968.00
2018-04-20T05:13:31.475Z,7852.00
2018-04-20T05:14:31.386Z,7996.00
2018-04-20T05:15:31.298Z,7404.00
2018-04-20T05:16:31.302Z,6944.00
2018-04-20T05:17:31.149Z,8196.00
2018-04-20T05:18:31.039Z,9036.00
2018-04-20T05:19:30.946Z,8932.00
2018-04-20T05:20:30.857Z,8756.00
2018-04-20T05:21:30.769Z,9880.00
2018-04-20T05:22:30.707Z,9284.00
2018-04-20T05:23:30.682Z,7960.00
2018-04-20T05:24:30.505Z,9088.00
2018-04-20T05:25:30.455Z,9916.00
2018-04-20T05:26:30.328Z,10136.00
2018-04-20T05:27:30.271Z,10500.00
2018-04-20T05:28:30.153Z,8276.00
2018-04-20T05:29:30.071Z,7644.00
2018-04-20T05:30:30.087Z,6376.00
2018-04-20T05:31:29.890Z,5796.00
2018-04-20T05:32:29.832Z,7308.00
2018-04-20T05:33:29.717Z,8952.00
2018-04-20T05:34:29.629Z,9508.00
2018-04-20T05:35:29.542Z,9860.00
2018-04-20T05:36:29.464Z,8836.00
2018-04-20T05:37:29.492Z,9264.00
2018-04-20T05:38:29.280Z,8712.00
2018-04-20T05:39:29.192Z,8068.00
2018-04-20T05:40:29.105Z,8284.00
2018-04-20T05:41:29.033Z,7348.00
2018-04-20T05:42:28.960Z,7284.00
2018-04-20T05:43:28.972Z,7400.00
2018-04-20T05:44:28.756Z,9012.00
2018-04-20T05:45:28.667Z,10684.00
2018-04-20T05:46:28.582Z,10368.00
2018-04-20T05:47:28.526Z,10556.00
2018-04-20T05:48:28.409Z,11816.00
2018-04-20T05:49:28.321Z,11452.00
2018-04-20T05:50:28.233Z,11480.00
2018-04-20T05:51:28.240Z,13452.00
2018-04-20T05:52:28.093Z,14976.00
2018-04-20T05:53:27.974Z,14196.00
2018-04-20T05:54:27.885Z,12044.00
2018-04-20T05:55:27.798Z,10380.00
2018-04-20T05:56:27.714Z,11216.00
2018-04-20T05:57:27.654Z,11276.00
2018-04-20T05:58:27.537Z,10984.00
2018-04-20T05:59:27.452Z,12276.00
2018-04-20T06:00:27.364Z,12256.00
2018-04-20T06:01:27.275Z,14008.00
2018-04-20T06:02:27.773Z,14572.00
2018-04-20T06:03:27.105Z,12888.00
2018-04-20T06:04:27.149Z,11956.00
2018-04-20T06:05:26.932Z,13464.00
2018-04-20T06:06:26.844Z,13052.00
2018-04-20T06:07:26.788Z,12904.00
2018-04-20T06:08:26.671Z,14268.00
2018-04-20T06:09:26.591Z,12844.00
2018-04-20T06:10:26.500Z,11792.00
2018-04-20T06:11:26.413Z,11148.00
2018-04-20T06:12:26.358Z,12692.00
2018-04-20T06:13:26.241Z,13648.00
2018-04-20T06:14:26.158Z,15592.00
2018-04-20T06:15:26.072Z,17696.00
2018-04-20T06:16:25.983Z,17600.00
2018-04-20T06:17:25.923Z,18368.00
2018-04-20T06:18:25.807Z,20128.00
2018-04-20T06:19:25.725Z,20480.00
2018-04-20T06:20:25.639Z,19776.00
2018-04-20T06:21:25.552Z,19840.00
2018-04-20T06:22:25.496Z,19552.00
2018-04-20T06:23:25.378Z,18112.00
2018-04-20T06:24:25.309Z,19648.00
2018-04-20T06:25:25.210Z,20384.00
2018-04-20T06:26:25.122Z,20896.00
2018-04-20T06:27:25.067Z,21536.00
2018-04-20T06:28:24.954Z,21120.00
2018-04-20T06:29:24.865Z,22016.00
2018-04-20T06:30:24.781Z,24000.00
2018-04-20T06:31:24.694Z,27040.00
2018-04-20T06:32:24.634Z,28256.00
2018-04-20T06:33:24.527Z,28416.00
2018-04-20T06:34:24.435Z,29024.00
2018-04-20T06:35:24.350Z,30144.00
2018-04-20T06:36:24.266Z,31744.00
2018-04-20T06:37:24.209Z,31712.00
2018-04-20T06:38:24.097Z,32896.00
2018-04-20T06:39:24.010Z,35072.00
2018-04-20T06:40:23.929Z,34400.00
2018-04-20T06:41:23.842Z,34944.00
2018-04-20T06:42:23.789Z,34784.00
2018-04-20T06:43:23.669Z,33824.00
2018-04-20T06:44:23.588Z,34848.00
2018-04-20T06:45:23.502Z,37312.00
2018-04-20T06:46:23.420Z,35104.00
2018-04-20T06:47:23.366Z,35968.00
2018-04-20T06:48:23.249Z,40320.00
2018-04-20T06:49:23.165Z,41792.00
2018-04-20T06:50:23.079Z,41376.00
2018-04-20T06:51:22.995Z,41600.00
2018-04-20T06:52:22.944Z,42816.00
2018-04-20T06:53:22.829Z,40128.00
2018-04-20T06:54:22.744Z,38304.00
2018-04-20T06:55:22.660Z,37984.00
2018-04-20T06:56:22.581Z,36000.00
2018-04-20T06:57:22.525Z,34720.00
2018-04-20T06:58:22.413Z,32640.00
2018-04-20T06:59:22.326Z,29728.00
2018-04-20T07:00:23.739Z,29600.00
2018-04-20T07:01:23.739Z,31040.00
2018-04-20T07:02:22.104Z,32032.00
2018-04-20T07:03:21.993Z,30656.00
2018-04-20T07:04:21.908Z,29024.00
2018-04-20T07:05:21.826Z,28320.00
2018-04-20T07:06:21.742Z,28256.00
2018-04-20T07:07:21.690Z,28032.00
2018-04-20T07:08:21.575Z,28768.00
2018-04-20T07:09:21.501Z,29152.00
2018-04-20T07:10:21.408Z,29472.00
2018-04-20T07:11:21.324Z,29568.00
2018-04-20T07:12:21.271Z,29536.00
2018-04-20T07:13:21.159Z,29248.00
2018-04-20T07:14:21.172Z,29376.00
2018-04-20T07:15:20.993Z,29600.00
2018-04-20T07:16:20.911Z,29472.00
2018-04-20T07:17:20.889Z,29408.00
2018-04-20T07:18:20.741Z,29792.00
2018-04-20T07:19:20.660Z,29120.00
2018-04-20T07:20:20.580Z,29152.00
2018-04-20T07:21:20.601Z,29344.00
2018-04-20T07:22:20.418Z,29216.00
2018-04-20T07:23:20.399Z,28704.00
2018-04-20T07:24:20.247Z,27520.00
2018-04-20T07:25:20.167Z,26848.00
2018-04-20T07:26:20.082Z,26912.00
2018-04-20T07:27:20.003Z,27488.00
2018-04-20T07:28:20.044Z,27872.00
2018-04-20T07:29:19.834Z,27968.00
2018-04-20T07:30:19.754Z,27904.00
2018-04-20T07:31:19.669Z,27872.00
2018-04-20T07:32:19.591Z,28032.00
2018-04-20T07:33:19.536Z,27840.00
2018-04-20T07:34:19.424Z,28096.00
2018-04-20T07:35:19.440Z,28352.00
2018-04-20T07:36:19.259Z,28704.00
2018-04-20T07:37:19.182Z,28992.00
2018-04-20T07:38:19.123Z,28960.00
2018-04-20T07:39:19.010Z,29344.00
2018-04-20T07:40:18.932Z,29664.00
2018-04-20T07:41:18.859Z,30016.00
2018-04-20T07:42:18.859Z,30368.00
2018-04-20T07:43:18.713Z,30752.00
2018-04-20T07:44:18.602Z,31168.00
2018-04-20T07:45:18.523Z,31264.00
2018-04-20T07:46:18.442Z,31424.00
2018-04-20T07:47:18.358Z,32000.00
2018-04-20T07:48:18.313Z,33152.00
2018-04-20T07:49:18.194Z,34304.00
2018-04-20T07:50:18.115Z,36704.00
2018-04-20T07:51:18.030Z,43328.00
2018-04-20T07:52:17.951Z,42976.00
2018-04-20T07:53:17.898Z,42080.00
2018-04-20T07:54:17.788Z,42208.00
2018-04-20T07:55:17.716Z,43680.00
2018-04-20T07:56:17.625Z,43968.00
2018-04-20T07:57:17.545Z,45280.00
2018-04-20T07:58:17.489Z,49152.00
2018-04-20T07:59:17.384Z,52384.00
2018-04-20T08:00:17.301Z,51744.00
2018-04-20T08:01:17.219Z,53440.00
2018-04-20T08:02:17.136Z,51552.00
2018-04-20T08:03:17.086Z,52000.00
2018-04-20T08:04:17.070Z,54688.00
2018-04-20T08:05:16.895Z,54272.00
2018-04-20T08:06:16.814Z,55104.00
2018-04-20T08:07:16.733Z,53696.00
2018-04-20T08:08:16.689Z,54080.00
2018-04-20T08:09:16.571Z,52608.00
2018-04-20T08:10:16.492Z,51776.00
2018-04-20T08:11:16.505Z,50496.00
2018-04-20T08:12:16.333Z,52256.00
2018-04-20T08:13:16.276Z,54656.00
2018-04-20T08:14:16.168Z,53472.00
2018-04-20T08:15:16.089Z,52192.00
2018-04-20T08:16:16.011Z,51104.00
2018-04-20T08:17:15.929Z,49728.00
2018-04-20T08:18:15.954Z,45984.00
2018-04-20T08:19:15.765Z,42624.00
2018-04-20T08:20:15.689Z,43872.00
2018-04-20T08:21:15.607Z,48384.00
2018-04-20T08:22:15.526Z,52576.00
2018-04-20T08:23:15.482Z,57120.00
2018-04-20T08:24:15.372Z,64864.00
2018-04-20T08:25:15.284Z,69728.00
2018-04-20T08:26:16.272Z,69120.00
2018-04-20T08:27:15.127Z,65952.00
2018-04-20T08:28:15.072Z,58112.00
2018-04-20T08:29:14.964Z,56544.00
2018-04-20T08:30:15.771Z,57824.00
2018-04-20T08:31:14.801Z,59520.00
2018-04-20T08:32:14.813Z,60032.00
2018-04-20T08:33:14.675Z,58624.00
2018-04-20T08:34:14.609Z,62240.00
2018-04-20T08:35:14.483Z,62752.00
2018-04-20T08:36:14.405Z,67904.00
2018-04-20T08:37:14.323Z,69600.00
2018-04-20T08:38:14.276Z,71392.00
2018-04-20T08:39:14.162Z,70016.00
2018-04-20T08:40:14.086Z,68736.00
2018-04-20T08:41:14.007Z,64256.00
2018-04-20T08:42:13.927Z,63616.00
2018-04-20T08:43:13.877Z,59360.00
2018-04-20T08:44:13.766Z,60160.00
2018-04-20T08:45:14.277Z,67744.00
2018-04-20T08:46:13.607Z,74912.00
2018-04-20T08:47:13.531Z,75840.00
2018-04-20T08:48:13.479Z,74304.00
2018-04-20T08:49:13.373Z,73216.00
2018-04-20T08:50:13.298Z,74528.00
2018-04-20T08:51:13.215Z,71840.00
2018-04-20T08:52:13.138Z,76320.00
2018-04-20T08:53:13.096Z,81888.00
2018-04-20T08:54:12.977Z,79616.00
2018-04-20T08:55:12.900Z,82144.00
2018-04-20T08:56:12.826Z,70944.00
2018-04-20T08:57:12.743Z,70048.00
2018-04-20T08:58:12.696Z,72032.00
2018-04-20T08:59:12.585Z,71680.00
2018-04-20T09:00:12.510Z,69760.00
2018-04-20T09:01:12.431Z,67360.00
2018-04-20T09:02:12.354Z,69312.00
2018-04-20T09:03:12.305Z,74144.00
2018-04-20T09:04:12.197Z,85792.00
2018-04-20T09:05:12.120Z,84096.00
2018-04-20T09:06:12.039Z,83776.00
2018-04-20T09:07:11.965Z,81856.00
2018-04-20T09:08:11.918Z,84416.00
2018-04-20T09:09:11.809Z,84992.00
2018-04-20T09:10:11.733Z,86272.00
2018-04-20T09:11:11.656Z,83872.00
2018-04-20T09:12:12.334Z,83168.00
2018-04-20T09:13:11.525Z,86112.00
2018-04-20T09:14:11.416Z,81376.00
2018-04-20T09:15:11.343Z,75648.00
2018-04-20T09:16:11.274Z,77248.00
2018-04-20T09:17:11.186Z,80416.00
2018-04-20T09:18:11.138Z,86912.00
2018-04-20T09:19:11.031Z,86528.00
2018-04-20T09:20:10.953Z,82624.00
2018-04-20T09:21:10.874Z,86176.00
2018-04-20T09:22:10.795Z,86400.00
2018-04-20T09:23:10.721Z,85792.00
2018-04-20T09:24:10.673Z,83168.00
2018-04-20T09:25:10.565Z,78816.00
2018-04-20T09:26:10.488Z,81728.00
2018-04-20T09:27:10.412Z,86112.00
2018-04-20T09:28:11.793Z,95296.00
2018-04-20T09:29:10.258Z,96160.00
2018-04-20T09:30:10.181Z,89856.00
2018-04-20T09:31:10.105Z,79584.00
2018-04-20T09:32:10.028Z,85088.00
2018-04-20T09:33:09.954Z,83904.00
2018-04-20T09:34:09.905Z,83776.00
2018-04-20T09:35:09.801Z,82624.00
2018-04-20T09:36:09.726Z,83232.00
2018-04-20T09:37:09.650Z,81760.00
2018-04-20T09:38:09.578Z,83392.00
2018-04-20T09:39:09.522Z,83744.00
2018-04-20T09:40:09.420Z,87424.00
2018-04-20T09:41:09.448Z,83712.00
2018-04-20T09:42:09.265Z,86976.00
2018-04-20T09:43:09.194Z,87584.00
2018-04-20T09:44:09.142Z,88640.00
2018-04-20T09:45:09.031Z,90496.00
2018-04-20T09:46:08.990Z,90976.00
2018-04-20T09:47:09.857Z,85632.00
2018-04-20T09:48:08.807Z,79360.00
2018-04-20T09:49:08.761Z,79872.00
2018-04-20T09:50:08.719Z,76384.00
2018-04-20T09:51:08.576Z,78688.00
2018-04-20T09:52:08.512Z,78880.00
2018-04-20T09:53:08.423Z,76736.00
2018-04-20T09:54:08.379Z,76960.00
2018-04-20T09:55:08.269Z,81984.00
2018-04-20T09:56:08.198Z,81632.00
2018-04-20T09:57:08.128Z,86368.00
2018-04-20T09:58:08.039Z,86592.00
2018-04-20T09:59:07.990Z,84352.00
2018-04-20T10:00:07.883Z,81184.00
2018-04-20T10:01:07.902Z,80736.00
2018-04-20T10:02:07.729Z,85952.00
2018-04-20T10:03:07.655Z,85504.00
2018-04-20T10:04:07.609Z,82080.00
2018-04-20T10:05:07.500Z,81792.00
2018-04-20T10:06:07.428Z,78464.00
2018-04-20T10:07:07.348Z,80608.00
2018-04-20T10:08:07.275Z,76064.00
2018-04-20T10:09:07.228Z,77344.00
2018-04-20T10:10:07.121Z,82144.00
2018-04-20T10:11:07.057Z,77920.00
2018-04-20T10:12:06.968Z,80576.00
2018-04-20T10:13:06.892Z,77184.00
2018-04-20T10:14:06.844Z,74976.00
2018-04-20T10:15:06.743Z,74784.00
2018-04-20T10:16:06.666Z,74944.00
2018-04-20T10:17:06.592Z,74464.00
2018-04-20T10:18:06.519Z,70048.00
2018-04-20T10:19:06.511Z,70208.00
2018-04-20T10:20:06.363Z,65024.00
2018-04-20T10:21:06.290Z,65088.00
2018-04-20T10:22:06.213Z,68352.00
2018-04-20T10:23:06.136Z,65472.00
2018-04-20T10:24:06.091Z,64192.00
2018-04-20T10:25:05.985Z,60992.00
2018-04-20T10:26:05.907Z,58784.00
2018-04-20T10:27:05.836Z,59136.00
2018-04-20T10:28:05.849Z,65056.00
2018-04-20T10:29:05.714Z,68480.00
2018-04-20T10:30:05.609Z,74976.00
2018-04-20T10:31:05.532Z,74048.00
2018-04-20T10:32:05.462Z,73504.00
2018-04-20T10:33:05.380Z,74784.00
2018-04-20T10:34:05.327Z,74816.00
2018-04-20T10:35:05.325Z,76928.00
2018-04-20T10:36:05.154Z,74752.00
2018-04-20T10:37:05.078Z,72960.00
2018-04-20T10:38:05.002Z,65856.00
2018-04-20T10:39:04.964Z,68800.00
2018-04-20T10:40:04.852Z,71008.00
2018-04-20T10:41:04.828Z,72896.00
2018-04-20T10:42:04.699Z,79712.00
2018-04-20T10:43:04.627Z,79616.00
2018-04-20T10:44:04.580Z,74784.00
2018-04-20T10:45:04.475Z,77984.00
2018-04-20T10:46:04.401Z,75808.00
2018-04-20T10:47:04.325Z,77568.00
2018-04-20T10:48:04.248Z,81056.00
2018-04-20T10:49:04.204Z,81280.00
2018-04-20T10:50:04.096Z,79040.00
2018-04-20T10:51:04.031Z,84512.00
2018-04-20T10:52:03.950Z,80704.00
2018-04-20T10:53:03.868Z,80640.00
2018-04-20T10:54:03.824Z,83264.00
2018-04-20T10:55:03.833Z,83136.00
2018-04-20T10:56:03.644Z,87584.00
2018-04-20T10:57:03.570Z,85952.00
2018-04-20T10:58:03.494Z,85984.00
2018-04-20T10:59:03.447Z,90848.00
2018-04-20T11:00:03.349Z,93024.00
2018-04-20T11:01:03.269Z,91296.00
2018-04-20T11:02:03.287Z,93792.00
2018-04-20T11:03:03.119Z,89088.00
2018-04-20T11:04:03.074Z,83616.00
2018-04-20T11:05:02.967Z,88320.00
2018-04-20T11:06:02.892Z,92032.00
2018-04-20T11:07:02.820Z,92256.00
2018-04-20T11:08:02.740Z,90784.00
2018-04-20T11:09:02.789Z,91328.00
2018-04-20T11:10:02.591Z,79872.00
2018-04-20T11:11:02.515Z,71936.00
2018-04-20T11:12:02.445Z,68992.00
2018-04-20T11:13:02.365Z,67008.00
2018-04-20T11:14:02.320Z,73344.00
2018-04-20T11:15:02.214Z,75456.00
2018-04-20T11:16:02.240Z,81024.00
2018-04-20T11:17:02.082Z,79232.00
2018-04-20T11:18:01.985Z,74496.00
2018-04-20T11:19:01.989Z,76448.00
2018-04-20T11:20:01.841Z,73920.00
2018-04-20T11:21:01.762Z,74848.00
2018-04-20T11:22:01.694Z,76448.00
2018-04-20T11:23:01.610Z,75392.00
2018-04-20T11:24:01.567Z,69824.00
2018-04-20T11:25:01.465Z,65760.00
2018-04-20T11:26:01.386Z,60480.00
2018-04-20T11:27:01.320Z,57184.00
2018-04-20T11:28:01.238Z,57728.00
2018-04-20T11:29:01.194Z,61600.00
2018-04-20T11:30:01.182Z,61664.00
2018-04-20T11:31:01.013Z,61536.00
2018-04-20T11:32:00.939Z,62752.00
2018-04-20T11:33:01.842Z,61280.00
2018-04-20T11:34:00.791Z,63392.00
2018-04-20T11:35:00.742Z,60960.00
2018-04-20T11:36:00.642Z,62976.00
2018-04-20T11:37:00.658Z,65376.00
2018-04-20T11:38:00.494Z,61312.00
2018-04-20T11:39:00.421Z,63520.00
2018-04-20T11:40:00.369Z,64512.00
2018-04-20T11:41:00.266Z,62496.00
2018-04-20T11:42:00.190Z,61280.00
2018-04-20T11:43:00.117Z,67360.00
2018-04-20T11:44:00.042Z,69312.00
2018-04-20T11:44:59.997Z,74816.00
2018-04-20T11:45:59.892Z,73760.00
2018-04-20T11:46:59.817Z,67936.00
2018-04-20T11:47:59.742Z,61472.00
2018-04-20T11:48:59.669Z,54272.00
2018-04-20T11:49:59.624Z,50848.00
2018-04-20T11:50:59.522Z,49984.00
2018-04-20T11:51:59.447Z,54016.00
2018-04-20T11:52:59.371Z,53920.00
2018-04-20T11:53:59.323Z,45088.00
2018-04-20T11:54:59.247Z,45216.00
2018-04-20T11:55:59.146Z,44672.00
2018-04-20T11:56:59.071Z,49056.00
2018-04-20T11:57:58.993Z,59328.00
2018-04-20T11:58:58.919Z,75296.00
2018-04-20T11:59:58.872Z,79168.00
2018-04-20T12:00:58.773Z,79968.00
2018-04-20T12:01:58.692Z,81504.00
2018-04-20T12:02:58.619Z,79712.00
2018-04-20T12:03:58.543Z,83136.00
2018-04-20T12:04:58.500Z,85984.00
2018-04-20T12:05:58.396Z,86528.00
2018-04-20T12:06:58.318Z,85408.00
2018-04-20T12:07:58.246Z,87648.00
2018-04-20T12:08:58.166Z,87296.00
2018-04-20T12:09:58.128Z,93184.00
2018-04-20T12:10:58.017Z,92288.00
2018-04-20T12:11:57.943Z,92352.00
2018-04-20T12:12:57.870Z,89056.00
2018-04-20T12:13:57.793Z,86624.00
2018-04-20T12:14:57.747Z,85728.00